<?xml version="1.0" encoding="ISO-8859-1" standalone="yes"?>
<gpx
 version="1.0"
 creator="OziExplorer Version 3954n - http://www.oziexplorer.com"
 xmlns:xsi="http://www.w3.org/2001/XMLSchema-instance"
 xmlns="http://www.topografix.com/GPX/1/0"
 xsi:schemaLocation="http://www.topografix.com/GPX/1/0 http://www.topografix.com/GPX/1/0/gpx.xsd">
<time>2008-06-24T05:48:20Z</time>
<bounds minlat="51.820977" minlon="4.967119" maxlat="51.895368" maxlon="5.117901"/>
<wpt lat="51.8278076" lon="4.9684200">
 <ele>13.100000</ele>
 <time>2008-03-29T21:55:34.000Z</time>
 <name>001</name>
 <cmt>na station via rotonde links n. twee bruggen</cmt>
 <desc>na station via rotonde links n. twee bruggen</desc>
</wpt>
<wpt lat="51.8279495" lon="4.9757627">
 <ele>3.500000</ele>
 <time>2008-03-29T21:55:34.000Z</time>
 <name>002</name>
 <cmt>veer v.loevenstein en vuren</cmt>
 <desc>veer v.loevenstein en vuren</desc>
</wpt>
<wpt lat="51.8223086" lon="5.0185722">
 <ele>-4.400000</ele>
 <time>2008-03-29T21:55:34.000Z</time>
 <name>003</name>
 <cmt>gezicht op loevenstein</cmt>
 <desc>gezicht op loevenstein</desc>
</wpt>
<wpt lat="51.8233319" lon="5.0486198">
 <ele>0.600000</ele>
 <time>2008-03-29T21:55:34.000Z</time>
 <name>004</name>
 <cmt>fort vuren</cmt>
 <desc>fort vuren</desc>
</wpt>
<wpt lat="51.8606109" lon="5.0644535">
 <ele>-3.700000</ele>
 <time>2008-03-29T21:55:34.000Z</time>
 <name>005</name>
 <cmt>hierna gaat de weg door drassig gebied</cmt>
 <desc>hierna gaat de weg door drassig gebied</desc>
</wpt>
<wpt lat="51.8692312" lon="5.0955729">
 <ele>-4.400000</ele>
 <time>2008-03-29T21:55:34.000Z</time>
 <name>006</name>
 <cmt>de plassen met vogels</cmt>
 <desc>de plassen met vogels</desc>
</wpt>
<wpt lat="51.8944074" lon="5.0926746">
 <ele>-1.000000</ele>
 <time>2008-03-29T21:55:34.000Z</time>
 <name>007</name>
 <cmt>totale lengte track 24,2km  5 tot 6 uur lopen,veel drassig gebied</cmt>
 <desc>totale lengte track 24,2km  5 tot 6 uur lopen,veel drassig gebied</desc>
</wpt>
<wpt lat="51.8310494" lon="4.9680817">
 <time>2008-06-24T07:48:04.520Z</time>
 <name>START</name>
 <cmt>Start gork naar leerdam</cmt>
 <desc>Start gork naar leerdam</desc>
</wpt>
<trk>
 <name>f-zholland-gork-naar-leerdam</name>
 <desc>gork naar leerdam</desc>
<trkseg>
<trkpt lat="51.8310046" lon="4.9681184">
<time>2007-12-31T22:00:01.000Z</time>
</trkpt>
<trkpt lat="51.8299885" lon="4.9667497">
<time>2007-12-31T22:00:02.000Z</time>
</trkpt>
<trkpt lat="51.8296073" lon="4.9669708">
<time>2007-12-31T22:00:03.000Z</time>
</trkpt>
<trkpt lat="51.8293623" lon="4.9675897">
<time>2007-12-31T22:00:04.000Z</time>
</trkpt>
<trkpt lat="51.8293866" lon="4.9680972">
<time>2007-12-31T22:00:05.000Z</time>
</trkpt>
<trkpt lat="51.8286699" lon="4.9687566">
<time>2007-12-31T22:00:06.000Z</time>
</trkpt>
<trkpt lat="51.8281290" lon="4.9683265">
<time>2007-12-31T22:00:07.000Z</time>
</trkpt>
<trkpt lat="51.8273427" lon="4.9683700">
<time>2007-12-31T22:00:08.000Z</time>
</trkpt>
<trkpt lat="51.8272312" lon="4.9686249">
<time>2007-12-31T22:00:09.000Z</time>
</trkpt>
<trkpt lat="51.8272817" lon="4.9701839">
<time>2007-12-31T22:00:10.000Z</time>
</trkpt>
<trkpt lat="51.8276203" lon="4.9706159">
<time>2007-12-31T22:00:11.000Z</time>
</trkpt>
<trkpt lat="51.8273322" lon="4.9717428">
<time>2007-12-31T22:00:12.000Z</time>
</trkpt>
<trkpt lat="51.8272210" lon="4.9720703">
<time>2007-12-31T22:00:13.000Z</time>
</trkpt>
<trkpt lat="51.8268630" lon="4.9725087">
<time>2007-12-31T22:00:14.000Z</time>
</trkpt>
<trkpt lat="51.8270019" lon="4.9736679">
<time>2007-12-31T22:00:15.000Z</time>
</trkpt>
<trkpt lat="51.8267112" lon="4.9740695">
<time>2007-12-31T22:00:16.000Z</time>
</trkpt>
<trkpt lat="51.8268258" lon="4.9747213">
<time>2007-12-31T22:00:17.000Z</time>
</trkpt>
<trkpt lat="51.8282452" lon="4.9757600">
<time>2007-12-31T22:00:18.000Z</time>
</trkpt>
<trkpt lat="51.8280902" lon="4.9764142">
<time>2007-12-31T22:00:19.000Z</time>
</trkpt>
<trkpt lat="51.8275059" lon="4.9764195">
<time>2007-12-31T22:00:20.000Z</time>
</trkpt>
<trkpt lat="51.8268759" lon="4.9761714">
<time>2007-12-31T22:00:21.000Z</time>
</trkpt>
<trkpt lat="51.8266988" lon="4.9769346">
<time>2007-12-31T22:00:22.000Z</time>
</trkpt>
<trkpt lat="51.8270391" lon="4.9778744">
<time>2007-12-31T22:00:23.000Z</time>
</trkpt>
<trkpt lat="51.8267724" lon="4.9787109">
<time>2007-12-31T22:00:24.000Z</time>
</trkpt>
<trkpt lat="51.8271785" lon="4.9791787">
<time>2007-12-31T22:00:25.000Z</time>
</trkpt>
<trkpt lat="51.8274924" lon="4.9789945">
<time>2007-12-31T22:00:26.000Z</time>
</trkpt>
<trkpt lat="51.8281450" lon="4.9792425">
<time>2007-12-31T22:00:27.000Z</time>
</trkpt>
<trkpt lat="51.8282146" lon="4.9798947">
<time>2007-12-31T22:00:28.000Z</time>
</trkpt>
<trkpt lat="51.8277202" lon="4.9798629">
<time>2007-12-31T22:00:29.000Z</time>
</trkpt>
<trkpt lat="51.8273635" lon="4.9807002">
<time>2007-12-31T22:00:30.000Z</time>
</trkpt>
<trkpt lat="51.8273938" lon="4.9829484">
<time>2007-12-31T22:00:31.000Z</time>
</trkpt>
<trkpt lat="51.8281904" lon="4.9859151">
<time>2007-12-31T22:00:32.000Z</time>
</trkpt>
<trkpt lat="51.8276042" lon="4.9919767">
<time>2007-12-31T22:00:33.000Z</time>
</trkpt>
<trkpt lat="51.8272933" lon="4.9930674">
<time>2007-12-31T22:00:34.000Z</time>
</trkpt>
<trkpt lat="51.8268930" lon="4.9943039">
<time>2007-12-31T22:00:35.000Z</time>
</trkpt>
<trkpt lat="51.8269170" lon="4.9947752">
<time>2007-12-31T22:00:36.000Z</time>
</trkpt>
<trkpt lat="51.8272807" lon="4.9960050">
<time>2007-12-31T22:00:37.000Z</time>
</trkpt>
<trkpt lat="51.8272652" lon="4.9981086">
<time>2007-12-31T22:00:38.000Z</time>
</trkpt>
<trkpt lat="51.8271318" lon="4.9985449">
<time>2007-12-31T22:00:39.000Z</time>
</trkpt>
<trkpt lat="51.8265510" lon="4.9996016">
<time>2007-12-31T22:00:40.000Z</time>
</trkpt>
<trkpt lat="51.8263059" lon="5.0002202">
<time>2007-12-31T22:00:41.000Z</time>
</trkpt>
<trkpt lat="51.8261109" lon="5.0024340">
<time>2007-12-31T22:00:42.000Z</time>
</trkpt>
<trkpt lat="51.8251304" lon="5.0049446">
<time>2007-12-31T22:00:43.000Z</time>
</trkpt>
<trkpt lat="51.8247110" lon="5.0072690">
<time>2007-12-31T22:00:44.000Z</time>
</trkpt>
<trkpt lat="51.8243768" lon="5.0081784">
<time>2007-12-31T22:00:45.000Z</time>
</trkpt>
<trkpt lat="51.8236636" lon="5.0099976">
<time>2007-12-31T22:00:46.000Z</time>
</trkpt>
<trkpt lat="51.8235982" lon="5.0106146">
<time>2007-12-31T22:00:47.000Z</time>
</trkpt>
<trkpt lat="51.8236902" lon="5.0112665">
<time>2007-12-31T22:00:48.000Z</time>
</trkpt>
<trkpt lat="51.8242572" lon="5.0129299">
<time>2007-12-31T22:00:49.000Z</time>
</trkpt>
<trkpt lat="51.8242820" lon="5.0136550">
<time>2007-12-31T22:00:50.000Z</time>
</trkpt>
<trkpt lat="51.8241709" lon="5.0140548">
<time>2007-12-31T22:00:51.000Z</time>
</trkpt>
<trkpt lat="51.8235451" lon="5.0151116">
<time>2007-12-31T22:00:52.000Z</time>
</trkpt>
<trkpt lat="51.8233008" lon="5.0160202">
<time>2007-12-31T22:00:53.000Z</time>
</trkpt>
<trkpt lat="51.8226287" lon="5.0166784">
<time>2007-12-31T22:00:54.000Z</time>
</trkpt>
<trkpt lat="51.8221419" lon="5.0190757">
<time>2007-12-31T22:00:55.000Z</time>
</trkpt>
<trkpt lat="51.8221664" lon="5.0197282">
<time>2007-12-31T22:00:56.000Z</time>
</trkpt>
<trkpt lat="51.8224400" lon="5.0209951">
<time>2007-12-31T22:00:57.000Z</time>
</trkpt>
<trkpt lat="51.8224663" lon="5.0222278">
<time>2007-12-31T22:00:58.000Z</time>
</trkpt>
<trkpt lat="51.8223370" lon="5.0240057">
<time>2007-12-31T22:00:59.000Z</time>
</trkpt>
<trkpt lat="51.8221834" lon="5.0252035">
<time>2007-12-31T22:01:00.000Z</time>
</trkpt>
<trkpt lat="51.8221912" lon="5.0277418">
<time>2007-12-31T22:01:01.000Z</time>
</trkpt>
<trkpt lat="51.8224627" lon="5.0283561">
<time>2007-12-31T22:01:02.000Z</time>
</trkpt>
<trkpt lat="51.8223512" lon="5.0286108">
<time>2007-12-31T22:01:03.000Z</time>
</trkpt>
<trkpt lat="51.8215202" lon="5.0287624">
<time>2007-12-31T22:01:04.000Z</time>
</trkpt>
<trkpt lat="51.8212076" lon="5.0294176">
<time>2007-12-31T22:01:05.000Z</time>
</trkpt>
<trkpt lat="51.8212108" lon="5.0304691">
<time>2007-12-31T22:01:06.000Z</time>
</trkpt>
<trkpt lat="51.8213919" lon="5.0309028">
<time>2007-12-31T22:01:07.000Z</time>
</trkpt>
<trkpt lat="51.8217076" lon="5.0312630">
<time>2007-12-31T22:01:08.000Z</time>
</trkpt>
<trkpt lat="51.8204599" lon="5.0348263">
<time>2007-12-31T22:01:09.000Z</time>
</trkpt>
<trkpt lat="51.8201971" lon="5.0371127">
<time>2007-12-31T22:01:10.000Z</time>
</trkpt>
<trkpt lat="51.8200447" lon="5.0387456">
<time>2007-12-31T22:01:11.000Z</time>
</trkpt>
<trkpt lat="51.8200253" lon="5.0397973">
<time>2007-12-31T22:01:12.000Z</time>
</trkpt>
<trkpt lat="51.8203172" lon="5.0397225">
<time>2007-12-31T22:01:13.000Z</time>
</trkpt>
<trkpt lat="51.8205649" lon="5.0399019">
<time>2007-12-31T22:01:14.000Z</time>
</trkpt>
<trkpt lat="51.8218715" lon="5.0410159">
<time>2007-12-31T22:01:15.000Z</time>
</trkpt>
<trkpt lat="51.8222097" lon="5.0413760">
<time>2007-12-31T22:01:16.000Z</time>
</trkpt>
<trkpt lat="51.8233358" lon="5.0422376">
<time>2007-12-31T22:01:17.000Z</time>
</trkpt>
<trkpt lat="51.8228447" lon="5.0433655">
<time>2007-12-31T22:01:18.000Z</time>
</trkpt>
<trkpt lat="51.8226893" lon="5.0440194">
<time>2007-12-31T22:01:19.000Z</time>
</trkpt>
<trkpt lat="51.8226026" lon="5.0451079">
<time>2007-12-31T22:01:20.000Z</time>
</trkpt>
<trkpt lat="51.8219807" lon="5.0476147">
<time>2007-12-31T22:01:21.000Z</time>
</trkpt>
<trkpt lat="51.8233321" lon="5.0486924">
<time>2007-12-31T22:01:22.000Z</time>
</trkpt>
<trkpt lat="51.8232661" lon="5.0492005">
<time>2007-12-31T22:01:23.000Z</time>
</trkpt>
<trkpt lat="51.8243239" lon="5.0497728">
<time>2007-12-31T22:01:24.000Z</time>
</trkpt>
<trkpt lat="51.8245025" lon="5.0493726">
<time>2007-12-31T22:01:25.000Z</time>
</trkpt>
<trkpt lat="51.8247503" lon="5.0495883">
<time>2007-12-31T22:01:26.000Z</time>
</trkpt>
<trkpt lat="51.8265468" lon="5.0491759">
<time>2007-12-31T22:01:27.000Z</time>
</trkpt>
<trkpt lat="51.8271089" lon="5.0492805">
<time>2007-12-31T22:01:28.000Z</time>
</trkpt>
<trkpt lat="51.8271316" lon="5.0493529">
<time>2007-12-31T22:01:29.000Z</time>
</trkpt>
<trkpt lat="51.8278730" lon="5.0493111">
<time>2007-12-31T22:01:30.000Z</time>
</trkpt>
<trkpt lat="51.8294457" lon="5.0492268">
<time>2007-12-31T22:01:31.000Z</time>
</trkpt>
<trkpt lat="51.8296700" lon="5.0490800">
<time>2007-12-31T22:01:32.000Z</time>
</trkpt>
<trkpt lat="51.8301421" lon="5.0491490">
<time>2007-12-31T22:01:33.000Z</time>
</trkpt>
<trkpt lat="51.8314443" lon="5.0487403">
<time>2007-12-31T22:01:34.000Z</time>
</trkpt>
<trkpt lat="51.8316463" lon="5.0486662">
<time>2007-12-31T22:01:35.000Z</time>
</trkpt>
<trkpt lat="51.8327934" lon="5.0490566">
<time>2007-12-31T22:01:36.000Z</time>
</trkpt>
<trkpt lat="51.8363742" lon="5.0517865">
<time>2007-12-31T22:01:37.000Z</time>
</trkpt>
<trkpt lat="51.8370486" lon="5.0518903">
<time>2007-12-31T22:01:38.000Z</time>
</trkpt>
<trkpt lat="51.8375867" lon="5.0514873">
<time>2007-12-31T22:01:39.000Z</time>
</trkpt>
<trkpt lat="51.8384158" lon="5.0506468">
<time>2007-12-31T22:01:40.000Z</time>
</trkpt>
<trkpt lat="51.8387298" lon="5.0504630">
<time>2007-12-31T22:01:41.000Z</time>
</trkpt>
<trkpt lat="51.8406624" lon="5.0504849">
<time>2007-12-31T22:01:42.000Z</time>
</trkpt>
<trkpt lat="51.8410900" lon="5.0506994">
<time>2007-12-31T22:01:43.000Z</time>
</trkpt>
<trkpt lat="51.8415189" lon="5.0513854">
<time>2007-12-31T22:01:44.000Z</time>
</trkpt>
<trkpt lat="51.8418812" lon="5.0523622">
<time>2007-12-31T22:01:45.000Z</time>
</trkpt>
<trkpt lat="51.8421529" lon="5.0530857">
<time>2007-12-31T22:01:46.000Z</time>
</trkpt>
<trkpt lat="51.8424463" lon="5.0535189">
<time>2007-12-31T22:01:47.000Z</time>
</trkpt>
<trkpt lat="51.8428965" lon="5.0538058">
<time>2007-12-31T22:01:48.000Z</time>
</trkpt>
<trkpt lat="51.8455048" lon="5.0544033">
<time>2007-12-31T22:01:49.000Z</time>
</trkpt>
<trkpt lat="51.8451503" lon="5.0482746">
<time>2007-12-31T22:01:50.000Z</time>
</trkpt>
<trkpt lat="51.8453900" lon="5.0456969">
<time>2007-12-31T22:01:51.000Z</time>
</trkpt>
<trkpt lat="51.8487864" lon="5.0468322">
<time>2007-12-31T22:01:52.000Z</time>
</trkpt>
<trkpt lat="51.8494606" lon="5.0468634">
<time>2007-12-31T22:01:53.000Z</time>
</trkpt>
<trkpt lat="51.8496389" lon="5.0463541">
<time>2007-12-31T22:01:54.000Z</time>
</trkpt>
<trkpt lat="51.8498182" lon="5.0462076">
<time>2007-12-31T22:01:55.000Z</time>
</trkpt>
<trkpt lat="51.8502901" lon="5.0462040">
<time>2007-12-31T22:01:56.000Z</time>
</trkpt>
<trkpt lat="51.8510552" lon="5.0465611">
<time>2007-12-31T22:01:57.000Z</time>
</trkpt>
<trkpt lat="51.8522470" lon="5.0468423">
<time>2007-12-31T22:01:58.000Z</time>
</trkpt>
<trkpt lat="51.8525631" lon="5.0473842">
<time>2007-12-31T22:01:59.000Z</time>
</trkpt>
<trkpt lat="51.8544273" lon="5.0470799">
<time>2007-12-31T22:02:00.000Z</time>
</trkpt>
<trkpt lat="51.8545159" lon="5.0466438">
<time>2007-12-31T22:02:01.000Z</time>
</trkpt>
<trkpt lat="51.8550554" lon="5.0467123">
<time>2007-12-31T22:02:02.000Z</time>
</trkpt>
<trkpt lat="51.8552152" lon="5.0475457">
<time>2007-12-31T22:02:03.000Z</time>
</trkpt>
<trkpt lat="51.8550143" lon="5.0480189">
<time>2007-12-31T22:02:04.000Z</time>
</trkpt>
<trkpt lat="51.8550835" lon="5.0486353">
<time>2007-12-31T22:02:05.000Z</time>
</trkpt>
<trkpt lat="51.8555405" lon="5.0512809">
<time>2007-12-31T22:02:06.000Z</time>
</trkpt>
<trkpt lat="51.8559251" lon="5.0521853">
<time>2007-12-31T22:02:07.000Z</time>
</trkpt>
<trkpt lat="51.8562884" lon="5.0535253">
<time>2007-12-31T22:02:08.000Z</time>
</trkpt>
<trkpt lat="51.8569735" lon="5.0574031">
<time>2007-12-31T22:02:09.000Z</time>
</trkpt>
<trkpt lat="51.8572048" lon="5.0597603">
<time>2007-12-31T22:02:10.000Z</time>
</trkpt>
<trkpt lat="51.8573859" lon="5.0602307">
<time>2007-12-31T22:02:11.000Z</time>
</trkpt>
<trkpt lat="51.8581050" lon="5.0602618">
<time>2007-12-31T22:02:12.000Z</time>
</trkpt>
<trkpt lat="51.8586490" lon="5.0619272">
<time>2007-12-31T22:02:13.000Z</time>
</trkpt>
<trkpt lat="51.8591687" lon="5.0629759">
<time>2007-12-31T22:02:14.000Z</time>
</trkpt>
<trkpt lat="51.8597777" lon="5.0638063">
<time>2007-12-31T22:02:15.000Z</time>
</trkpt>
<trkpt lat="51.8604755" lon="5.0642368">
<time>2007-12-31T22:02:16.000Z</time>
</trkpt>
<trkpt lat="51.8607233" lon="5.0644527">
<time>2007-12-31T22:02:17.000Z</time>
</trkpt>
<trkpt lat="51.8608588" lon="5.0647058">
<time>2007-12-31T22:02:18.000Z</time>
</trkpt>
<trkpt lat="51.8610640" lon="5.0657931">
<time>2007-12-31T22:02:19.000Z</time>
</trkpt>
<trkpt lat="51.8609743" lon="5.0658663">
<time>2007-12-31T22:02:20.000Z</time>
</trkpt>
<trkpt lat="51.8608387" lon="5.0655770">
<time>2007-12-31T22:02:21.000Z</time>
</trkpt>
<trkpt lat="51.8604572" lon="5.0657612">
<time>2007-12-31T22:02:22.000Z</time>
</trkpt>
<trkpt lat="51.8599157" lon="5.0649666">
<time>2007-12-31T22:02:23.000Z</time>
</trkpt>
<trkpt lat="51.8593526" lon="5.0644625">
<time>2007-12-31T22:02:24.000Z</time>
</trkpt>
<trkpt lat="51.8590594" lon="5.0641017">
<time>2007-12-31T22:02:25.000Z</time>
</trkpt>
<trkpt lat="51.8585849" lon="5.0631253">
<time>2007-12-31T22:02:26.000Z</time>
</trkpt>
<trkpt lat="51.8582702" lon="5.0630913">
<time>2007-12-31T22:02:27.000Z</time>
</trkpt>
<trkpt lat="51.8577765" lon="5.0633488">
<time>2007-12-31T22:02:28.000Z</time>
</trkpt>
<trkpt lat="51.8571928" lon="5.0635345">
<time>2007-12-31T22:02:29.000Z</time>
</trkpt>
<trkpt lat="51.8569464" lon="5.0638266">
<time>2007-12-31T22:02:30.000Z</time>
</trkpt>
<trkpt lat="51.8581221" lon="5.0664673">
<time>2007-12-31T22:02:31.000Z</time>
</trkpt>
<trkpt lat="51.8617865" lon="5.0754057">
<time>2007-12-31T22:02:32.000Z</time>
</trkpt>
<trkpt lat="51.8629677" lon="5.0802247">
<time>2007-12-31T22:02:33.000Z</time>
</trkpt>
<trkpt lat="51.8652629" lon="5.0901904">
<time>2007-12-31T22:02:34.000Z</time>
</trkpt>
<trkpt lat="51.8658021" lon="5.0901506">
<time>2007-12-31T22:02:35.000Z</time>
</trkpt>
<trkpt lat="51.8658704" lon="5.0905131">
<time>2007-12-31T22:02:36.000Z</time>
</trkpt>
<trkpt lat="51.8674914" lon="5.0917365">
<time>2007-12-31T22:02:37.000Z</time>
</trkpt>
<trkpt lat="51.8678753" lon="5.0924963">
<time>2007-12-31T22:02:38.000Z</time>
</trkpt>
<trkpt lat="51.8691191" lon="5.0956825">
<time>2007-12-31T22:02:39.000Z</time>
</trkpt>
<trkpt lat="51.8683347" lon="5.0965224">
<time>2007-12-31T22:02:40.000Z</time>
</trkpt>
<trkpt lat="51.8687303" lon="5.1020736">
<time>2007-12-31T22:02:41.000Z</time>
</trkpt>
<trkpt lat="51.8697639" lon="5.1020308">
<time>2007-12-31T22:02:42.000Z</time>
</trkpt>
<trkpt lat="51.8698765" lon="5.1021389">
<time>2007-12-31T22:02:43.000Z</time>
</trkpt>
<trkpt lat="51.8701705" lon="5.1028994">
<time>2007-12-31T22:02:44.000Z</time>
</trkpt>
<trkpt lat="51.8700814" lon="5.1032266">
<time>2007-12-31T22:02:45.000Z</time>
</trkpt>
<trkpt lat="51.8701269" lon="5.1034442">
<time>2007-12-31T22:02:46.000Z</time>
</trkpt>
<trkpt lat="51.8695469" lon="5.1052265">
<time>2007-12-31T22:02:47.000Z</time>
</trkpt>
<trkpt lat="51.8697724" lon="5.1055518">
<time>2007-12-31T22:02:48.000Z</time>
</trkpt>
<trkpt lat="51.8697508" lon="5.1059149">
<time>2007-12-31T22:02:49.000Z</time>
</trkpt>
<trkpt lat="51.8693721" lon="5.1072966">
<time>2007-12-31T22:02:50.000Z</time>
</trkpt>
<trkpt lat="51.8706584" lon="5.1096119">
<time>2007-12-31T22:02:51.000Z</time>
</trkpt>
<trkpt lat="51.8713077" lon="5.1085914">
<time>2007-12-31T22:02:52.000Z</time>
</trkpt>
<trkpt lat="51.8714649" lon="5.1085542">
<time>2007-12-31T22:02:53.000Z</time>
</trkpt>
<trkpt lat="51.8729537" lon="5.1109772">
<time>2007-12-31T22:02:54.000Z</time>
</trkpt>
<trkpt lat="51.8733569" lon="5.1104302">
<time>2007-12-31T22:02:55.000Z</time>
</trkpt>
<trkpt lat="51.8738738" lon="5.1104996">
<time>2007-12-31T22:02:56.000Z</time>
</trkpt>
<trkpt lat="51.8745746" lon="5.1122742">
<time>2007-12-31T22:02:57.000Z</time>
</trkpt>
<trkpt lat="51.8746659" lon="5.1128545">
<time>2007-12-31T22:02:58.000Z</time>
</trkpt>
<trkpt lat="51.8748691" lon="5.1132889">
<time>2007-12-31T22:02:59.000Z</time>
</trkpt>
<trkpt lat="51.8754746" lon="5.1127770">
<time>2007-12-31T22:03:00.000Z</time>
</trkpt>
<trkpt lat="51.8756115" lon="5.1136474">
<time>2007-12-31T22:03:01.000Z</time>
</trkpt>
<trkpt lat="51.8755446" lon="5.1138657">
<time>2007-12-31T22:03:02.000Z</time>
</trkpt>
<trkpt lat="51.8758826" lon="5.1142993">
<time>2007-12-31T22:03:03.000Z</time>
</trkpt>
<trkpt lat="51.8762873" lon="5.1143694">
<time>2007-12-31T22:03:04.000Z</time>
</trkpt>
<trkpt lat="51.8766492" lon="5.1153838">
<time>2007-12-31T22:03:05.000Z</time>
</trkpt>
<trkpt lat="51.8771226" lon="5.1160707">
<time>2007-12-31T22:03:06.000Z</time>
</trkpt>
<trkpt lat="51.8773714" lon="5.1167590">
<time>2007-12-31T22:03:07.000Z</time>
</trkpt>
<trkpt lat="51.8778196" lon="5.1162481">
<time>2007-12-31T22:03:08.000Z</time>
</trkpt>
<trkpt lat="51.8779556" lon="5.1167555">
<time>2007-12-31T22:03:09.000Z</time>
</trkpt>
<trkpt lat="51.8779798" lon="5.1174815">
<time>2007-12-31T22:03:10.000Z</time>
</trkpt>
<trkpt lat="51.8795528" lon="5.1175084">
<time>2007-12-31T22:03:11.000Z</time>
</trkpt>
<trkpt lat="51.8820017" lon="5.1173122">
<time>2007-12-31T22:03:12.000Z</time>
</trkpt>
<trkpt lat="51.8831921" lon="5.1170872">
<time>2007-12-31T22:03:13.000Z</time>
</trkpt>
<trkpt lat="51.8823780" lon="5.1148408">
<time>2007-12-31T22:03:14.000Z</time>
</trkpt>
<trkpt lat="51.8808399" lon="5.1105294">
<time>2007-12-31T22:03:15.000Z</time>
</trkpt>
<trkpt lat="51.8809062" lon="5.1100570">
<time>2007-12-31T22:03:16.000Z</time>
</trkpt>
<trkpt lat="51.8816011" lon="5.1093265">
<time>2007-12-31T22:03:17.000Z</time>
</trkpt>
<trkpt lat="51.8824307" lon="5.1085589">
<time>2007-12-31T22:03:18.000Z</time>
</trkpt>
<trkpt lat="51.8836199" lon="5.1078253">
<time>2007-12-31T22:03:19.000Z</time>
</trkpt>
<trkpt lat="51.8841605" lon="5.1084029">
<time>2007-12-31T22:03:20.000Z</time>
</trkpt>
<trkpt lat="51.8844979" lon="5.1085098">
<time>2007-12-31T22:03:21.000Z</time>
</trkpt>
<trkpt lat="51.8849453" lon="5.1076718">
<time>2007-12-31T22:03:22.000Z</time>
</trkpt>
<trkpt lat="51.8855960" lon="5.1072684">
<time>2007-12-31T22:03:23.000Z</time>
</trkpt>
<trkpt lat="51.8865813" lon="5.1058460">
<time>2007-12-31T22:03:24.000Z</time>
</trkpt>
<trkpt lat="51.8876810" lon="5.1052944">
<time>2007-12-31T22:03:25.000Z</time>
</trkpt>
<trkpt lat="51.8879044" lon="5.1047483">
<time>2007-12-31T22:03:26.000Z</time>
</trkpt>
<trkpt lat="51.8880592" lon="5.1036942">
<time>2007-12-31T22:03:27.000Z</time>
</trkpt>
<trkpt lat="51.8880802" lon="5.1030767">
<time>2007-12-31T22:03:28.000Z</time>
</trkpt>
<trkpt lat="51.8878529" lon="5.1020251">
<time>2007-12-31T22:03:29.000Z</time>
</trkpt>
<trkpt lat="51.8872438" lon="5.1010484">
<time>2007-12-31T22:03:30.000Z</time>
</trkpt>
<trkpt lat="51.8872421" lon="5.1003222">
<time>2007-12-31T22:03:31.000Z</time>
</trkpt>
<trkpt lat="51.8869941" lon="5.0999969">
<time>2007-12-31T22:03:32.000Z</time>
</trkpt>
<trkpt lat="51.8871040" lon="5.0989795">
<time>2007-12-31T22:03:33.000Z</time>
</trkpt>
<trkpt lat="51.8871024" lon="5.0983621">
<time>2007-12-31T22:03:34.000Z</time>
</trkpt>
<trkpt lat="51.8870346" lon="5.0981810">
<time>2007-12-31T22:03:35.000Z</time>
</trkpt>
<trkpt lat="51.8870551" lon="5.0973820">
<time>2007-12-31T22:03:36.000Z</time>
</trkpt>
<trkpt lat="51.8876765" lon="5.0942549">
<time>2007-12-31T22:03:37.000Z</time>
</trkpt>
<trkpt lat="51.8878542" lon="5.0934186">
<time>2007-12-31T22:03:38.000Z</time>
</trkpt>
<trkpt lat="51.8875582" lon="5.0918953">
<time>2007-12-31T22:03:39.000Z</time>
</trkpt>
<trkpt lat="51.8872189" lon="5.0909897">
<time>2007-12-31T22:03:40.000Z</time>
</trkpt>
<trkpt lat="51.8890819" lon="5.0901785">
<time>2007-12-31T22:03:41.000Z</time>
</trkpt>
<trkpt lat="51.8894204" lon="5.0907210">
<time>2007-12-31T22:03:42.000Z</time>
</trkpt>
<trkpt lat="51.8896682" lon="5.0909736">
<time>2007-12-31T22:03:43.000Z</time>
</trkpt>
<trkpt lat="51.8900505" lon="5.0911163">
<time>2007-12-31T22:03:44.000Z</time>
</trkpt>
<trkpt lat="51.8902760" lon="5.0914054">
<time>2007-12-31T22:03:45.000Z</time>
</trkpt>
<trkpt lat="51.8897827" lon="5.0918444">
<time>2007-12-31T22:03:46.000Z</time>
</trkpt>
<trkpt lat="51.8898300" lon="5.0927520">
<time>2007-12-31T22:03:47.000Z</time>
</trkpt>
<trkpt lat="51.8901019" lon="5.0936581">
<time>2007-12-31T22:03:48.000Z</time>
</trkpt>
<trkpt lat="51.8909553" lon="5.0934709">
<time>2007-12-31T22:03:49.000Z</time>
</trkpt>
</trkseg>
</trk>
</gpx>
